Time;durP1;ratioP1;P1;durP2;ratioP2;P2;SDS_P1;SDS_P2;PMS_P1;PMS_P2;Temp;Humidity;BMP_temperature;BMP_pressure;BME280_temperature;BME280_humidity;BME280_pressure;Samples;Min_cycle;Max_cycle;Signal;HPM_P1;HPM_P2
2022/11/10 00:00:08;;;;;;;14.25;8.45;;;;;;;16.69;47.10;93567.00;5035035;28;20086;-84
2022/11/10 00:02:33;;;;;;;10.60;7.93;;;;;;;16.69;47.32;93559.56;5053981;28;20341;-84
2022/11/10 00:04:59;;;;;;;11.05;7.78;;;;;;;16.70;47.15;93563.78;5038796;28;20039;-84
2022/11/10 00:07:25;;;;;;;11.70;7.82;;;;;;;16.67;47.13;93570.22;5042898;28;20434;-84
2022/11/10 00:09:51;;;;;;;12.60;8.30;;;;;;;16.68;47.41;93563.53;5055462;28;20082;-85
2022/11/10 00:12:17;;;;;;;9.45;7.60;;;;;;;16.67;47.14;93567.50;5054730;28;20502;-84
2022/11/10 00:17:26;;;;;;;11.18;7.43;;;;;;;16.68;47.04;93577.19;5053979;28;20043;-84
2022/11/10 00:19:52;;;;;;;10.07;6.97;;;;;;;16.68;47.46;93574.44;5051520;28;20048;-85
2022/11/10 00:22:17;;;;;;;9.80;7.13;;;;;;;16.68;47.28;93574.44;5034930;28;20044;-84
2022/11/10 00:24:43;;;;;;;9.05;6.88;;;;;;;16.69;47.06;93575.19;5069242;28;20498;-84
2022/11/10 00:27:09;;;;;;;11.13;7.80;;;;;;;16.69;47.26;93572.47;5053300;28;20371;-84
2022/11/10 00:29:34;;;;;;;9.13;7.13;;;;;;;16.69;47.27;93577.94;5034641;28;20043;-84
2022/11/10 00:32:00;;;;;;;10.15;7.25;;;;;;;16.73;46.95;93579.19;5029304;28;20043;-84
2022/11/10 00:34:25;;;;;;;10.82;6.70;;;;;;;16.70;46.96;93573.97;5069144;28;20044;-84
2022/11/10 00:36:50;;;;;;;11.77;7.28;;;;;;;16.68;47.09;93576.44;5074863;28;20386;-84
2022/11/10 00:39:16;;;;;;;10.98;7.35;;;;;;;16.68;46.98;93573.72;5037409;28;20048;-84
2022/11/10 00:41:41;;;;;;;10.18;6.60;;;;;;;16.68;47.42;93581.91;5071594;28;20105;-84
2022/11/10 00:44:07;;;;;;;11.30;6.90;;;;;;;16.68;47.20;93576.44;5066501;28;20043;-84
2022/11/10 00:46:32;;;;;;;8.90;6.70;;;;;;;16.68;47.29;93579.16;5074446;28;20236;-84
2022/11/10 00:48:57;;;;;;;9.35;6.35;;;;;;;16.69;47.06;93577.94;5090963;28;20089;-85
2022/11/10 00:51:25;;;;;;;9.57;6.60;;;;;;;16.68;47.20;93570.97;5073076;28;20493;-85
2022/11/10 00:53:50;;;;;;;9.25;6.60;;;;;;;16.70;47.23;93584.88;5058387;28;20035;-85
2022/11/10 00:56:16;;;;;;;7.32;5.40;;;;;;;16.72;47.23;93590.59;5057063;28;20092;-85
2022/11/10 00:58:41;;;;;;;9.70;6.22;;;;;;;16.66;47.65;93585.16;5074318;28;20316;-84
2022/11/10 01:01:07;;;;;;;8.98;6.43;;;;;;;16.67;47.12;93592.06;5072790;28;20521;-85
2022/11/10 01:03:32;;;;;;;9.40;6.38;;;;;;;16.67;47.25;93591.34;5068127;28;20052;-84
2022/11/10 01:05:58;;;;;;;9.05;5.80;;;;;;;16.68;47.00;93601.00;5037477;28;20035;-85
2022/11/10 01:08:23;;;;;;;8.07;5.65;;;;;;;16.69;47.51;93597.03;5058517;28;20032;-84
2022/11/10 01:10:49;;;;;;;8.00;5.88;;;;;;;16.67;47.26;93600.25;5074166;28;20024;-84
2022/11/10 01:13:14;;;;;;;8.18;5.85;;;;;;;16.67;47.33;93599.53;5072796;28;20020;-84
2022/11/10 01:15:40;;;;;;;8.25;6.05;;;;;;;16.70;47.44;93599.28;5073688;28;20047;-84
2022/11/10 01:18:06;;;;;;;7.30;5.38;;;;;;;16.69;47.38;93597.03;5053708;28;20043;-85
2022/11/10 01:20:34;;;;;;;9.10;6.20;;;;;;;16.67;47.18;93605.00;5057475;28;20044;-84
2022/11/10 01:23:00;;;;;;;8.40;5.68;;;;;;;16.67;46.99;93597.53;5057005;28;20040;-85
2022/11/10 01:25:25;;;;;;;7.57;5.30;;;;;;;16.68;47.55;93607.22;5088274;28;20112;-84
2022/11/10 01:27:50;;;;;;;9.10;5.88;;;;;;;16.68;47.17;93603.72;5071168;28;20383;-84
2022/11/10 01:30:16;;;;;;;8.50;5.95;;;;;;;16.67;47.54;93607.72;5070902;28;20052;-84
2022/11/10 01:32:42;;;;;;;8.02;5.32;;;;;;;16.69;47.14;93605.22;5050040;28;20037;-84
2022/11/10 01:35:07;;;;;;;7.60;5.13;;;;;;;16.68;47.59;93612.66;5063938;28;20048;-85
2022/11/10 01:37:32;;;;;;;7.90;5.35;;;;;;;16.70;47.25;93610.19;5068982;28;20115;-84
2022/11/10 01:39:58;;;;;;;8.88;5.75;;;;;;;16.72;47.09;93612.44;5071481;28;20090;-84
2022/11/10 01:42:24;;;;;;;7.72;5.65;;;;;;;16.69;47.17;93616.13;5049563;28;20411;-84
2022/11/10 01:45:21;;;;;;;9.00;5.43;;;;;;;16.70;47.11;93615.66;5061664;28;20045;-84
2022/11/10 01:47:47;;;;;;;7.43;5.38;;;;;;;16.67;47.21;93618.66;5068144;28;20041;-85
2022/11/10 01:50:13;;;;;;;8.63;5.03;;;;;;;16.65;47.45;93621.88;5083185;28;20033;-84
2022/11/10 01:52:39;;;;;;;8.57;6.00;;;;;;;16.68;47.33;93623.59;5070209;28;20036;-84
2022/11/10 01:55:04;;;;;;;7.35;5.10;;;;;;;16.67;47.32;93618.66;5052513;28;20047;-85
2022/11/10 01:57:30;;;;;;;7.78;5.22;;;;;;;16.70;47.53;93623.09;5052916;28;20035;-84
2022/11/10 01:59:55;;;;;;;8.23;5.35;;;;;;;16.68;47.53;93625.56;5052905;28;20036;-84
2022/11/10 02:02:24;;;;;;;9.70;5.68;;;;;;;16.68;47.46;93626.31;5064148;28;20037;-84
2022/11/10 02:04:49;;;;;;;8.15;5.70;;;;;;;16.69;47.53;93621.59;5070040;28;20378;-84
2022/11/10 02:07:15;;;;;;;7.15;5.05;;;;;;;16.70;47.54;93623.84;5065600;28;20495;-84
2022/11/10 02:09:44;;;;;;;7.72;5.00;;;;;;;16.65;47.40;93627.31;5049679;28;20043;-84
2022/11/10 02:12:09;;;;;;;6.68;4.57;;;;;;;16.70;47.42;93640.22;5049429;28;20036;-84
2022/11/10 02:14:34;;;;;;;9.02;5.28;;;;;;;16.68;47.55;93641.94;5049731;28;20426;-84
2022/11/10 02:17:00;;;;;;;8.15;4.65;;;;;;;16.70;47.45;93653.13;5055379;28;20037;-84
2022/11/10 02:19:25;;;;;;;6.88;4.80;;;;;;;16.68;47.84;93653.59;5047926;28;20036;-84
2022/11/10 02:21:51;;;;;;;6.68;4.30;;;;;;;16.68;47.51;93639.22;5052939;28;20040;-84
2022/11/10 02:24:16;;;;;;;8.30;5.10;;;;;;;16.66;47.60;93647.91;5051937;28;20082;-84
2022/11/10 02:26:51;;;;;;;6.93;5.07;;;;;;;16.68;47.60;93645.41;5052669;28;20032;-84
2022/11/10 02:29:17;;;;;;;6.75;4.55;;;;;;;16.66;47.79;93639.72;5072702;28;20525;-84
2022/11/10 02:31:42;;;;;;;7.07;4.47;;;;;;;16.68;47.57;93631.78;5049372;28;20045;-84
2022/11/10 02:34:08;;;;;;;5.80;4.78;;;;;;;16.66;47.61;93633.53;5065692;28;20047;-84
2022/11/10 02:36:33;;;;;;;5.80;4.40;;;;;;;16.67;47.68;93635.75;5085597;28;20559;-84
2022/11/10 02:38:58;;;;;;;6.38;4.50;;;;;;;16.70;47.71;93640.22;5064533;28;20047;-84
2022/11/10 02:41:24;;;;;;;5.93;4.28;;;;;;;16.67;47.33;93649.38;5060910;28;20044;-84
2022/11/10 02:43:50;;;;;;;6.10;4.32;;;;;;;16.68;47.26;93647.41;5079750;28;20048;-84
2022/11/10 02:46:16;;;;;;;6.20;4.32;;;;;;;16.65;47.46;93662.81;5063867;28;20096;-84
2022/11/10 02:48:41;;;;;;;7.25;4.68;;;;;;;16.65;47.69;93670.25;5041645;28;20036;-84
2022/11/10 02:51:06;;;;;;;5.38;4.07;;;;;;;16.63;47.49;93672.69;5032167;28;20048;-84
2022/11/10 02:53:32;;;;;;;7.28;4.40;;;;;;;16.65;47.74;93683.91;5036563;28;20039;-84
2022/11/10 02:55:57;;;;;;;6.43;4.68;;;;;;;16.64;47.41;93677.69;5032771;28;20032;-85
2022/11/10 02:58:23;;;;;;;5.55;3.88;;;;;;;16.65;47.54;93683.91;5031850;28;20063;-84
2022/11/10 03:00:48;;;;;;;7.95;4.75;;;;;;;16.65;47.88;93687.38;5075937;28;20048;-84
2022/11/10 03:03:14;;;;;;;8.68;3.95;;;;;;;16.64;47.51;93693.31;5065879;28;20040;-84
2022/11/10 03:05:39;;;;;;;5.95;4.47;;;;;;;16.63;47.69;93692.56;5052313;28;20055;-84
2022/11/10 03:08:05;;;;;;;6.13;4.03;;;;;;;16.62;47.87;93696.50;5051757;28;20047;-84
2022/11/10 03:10:30;;;;;;;6.90;4.90;;;;;;;16.62;47.67;93691.06;5084460;28;20457;-84
2022/11/10 03:12:56;;;;;;;5.45;4.05;;;;;;;16.64;47.68;93705.00;5069145;28;20039;-84
2022/11/10 03:15:22;;;;;;;7.40;4.10;;;;;;;16.64;47.50;93705.00;5050852;28;20684;-84
2022/11/10 03:17:47;;;;;;;5.22;3.88;;;;;;;16.64;47.57;93706.97;5049681;28;20178;-84
2022/11/10 03:20:13;;;;;;;6.53;4.00;;;;;;;16.63;47.77;93717.16;5077753;28;20119;-84
2022/11/10 03:22:38;;;;;;;6.65;4.13;;;;;;;16.65;47.68;93716.66;5052410;28;20024;-84
2022/11/10 03:25:04;;;;;;;5.65;4.28;;;;;;;16.64;47.83;93715.91;5051707;28;20466;-85
2022/11/10 03:27:29;;;;;;;6.53;4.35;;;;;;;16.63;47.62;93724.56;5051193;28;20114;-84
2022/11/10 03:29:55;;;;;;;7.72;4.50;;;;;;;16.62;47.88;93723.81;5069007;28;20044;-84
2022/11/10 03:32:20;;;;;;;7.15;4.28;;;;;;;16.61;47.73;93727.78;5058040;28;20040;-84
2022/11/10 03:34:46;;;;;;;8.88;4.47;;;;;;;16.61;47.64;93724.28;5044892;28;20090;-84
2022/11/10 03:37:11;;;;;;;5.55;4.28;;;;;;;16.61;47.77;93733.22;5031205;28;20411;-84
2022/11/10 03:39:36;;;;;;;5.82;3.85;;;;;;;16.67;47.52;93736.00;5038497;28;20036;-85
2022/11/10 03:42:02;;;;;;;4.82;3.75;;;;;;;16.63;47.56;93735.47;5052507;28;20416;-85
2022/11/10 03:44:27;;;;;;;6.35;4.43;;;;;;;16.60;47.77;93742.66;5029415;28;20499;-84
2022/11/10 03:46:53;;;;;;;6.93;4.03;;;;;;;16.61;47.90;93744.16;5015409;28;20036;-84
2022/11/10 03:49:18;;;;;;;5.63;3.60;;;;;;;16.60;47.57;93748.13;5032444;28;20055;-84
2022/11/10 03:51:43;;;;;;;6.18;3.85;;;;;;;16.62;48.07;93753.84;5083252;28;20043;-84
2022/11/10 03:54:09;;;;;;;5.57;3.85;;;;;;;16.63;47.88;93749.13;5053523;28;20044;-84
2022/11/10 03:56:34;;;;;;;5.38;3.63;;;;;;;16.63;47.79;93749.91;5052146;28;20568;-85
2022/11/10 03:59:00;;;;;;;4.93;3.72;;;;;;;16.64;47.76;93748.66;5035153;28;20039;-84
2022/11/10 04:01:25;;;;;;;5.53;3.50;;;;;;;16.61;47.75;93757.78;5018420;28;20047;-85
2022/11/10 04:03:50;;;;;;;5.97;4.15;;;;;;;16.61;47.88;93760.53;5052638;28;20043;-84
2022/11/10 04:09:00;;;;;;;5.25;3.65;;;;;;;16.62;47.89;93766.72;5060406;28;20093;-84
2022/11/10 04:16:56;;;;;;;5.88;3.47;;;;;;;16.62;47.67;93770.22;5040719;28;20043;-84
2022/11/10 04:19:21;;;;;;;5.47;3.58;;;;;;;16.62;48.08;93772.19;5051279;28;25237;-85
2022/11/10 04:21:47;;;;;;;5.35;3.60;;;;;;;16.60;48.27;93777.38;5019020;28;20040;-84
2022/11/10 04:24:12;;;;;;;5.25;3.53;;;;;;;16.60;47.83;93780.13;5034836;28;20414;-84
2022/11/10 04:26:39;;;;;;;4.45;3.10;;;;;;;16.60;47.78;93791.78;5037008;28;20439;-84
2022/11/10 04:29:07;;;;;;;4.03;3.28;;;;;;;16.61;47.91;93790.56;5054346;28;20119;-84
2022/11/10 04:31:34;;;;;;;4.65;3.28;;;;;;;16.63;47.68;93796.28;5055501;28;20036;-84
2022/11/10 04:33:59;;;;;;;5.07;3.40;;;;;;;16.64;47.58;93795.06;5051939;28;20060;-84
2022/11/10 04:36:26;;;;;;;5.57;3.67;;;;;;;16.62;48.17;93800.22;5071227;28;20040;-84
2022/11/10 04:38:53;;;;;;;5.93;3.78;;;;;;;16.61;48.03;93796.00;5070997;28;20040;-84
2022/11/10 04:41:18;;;;;;;5.22;3.42;;;;;;;16.65;47.62;93806.72;5070626;28;20081;-84
2022/11/10 04:43:44;;;;;;;11.02;4.07;;;;;;;16.64;47.97;93810.69;5087642;28;20024;-85
2022/11/10 04:46:16;;;;;;;10.40;4.00;;;;;;;16.66;48.03;93805.50;5069279;28;20044;-84
2022/11/10 04:48:43;;;;;;;11.15;4.63;;;;;;;16.67;48.33;93813.16;5088319;28;20109;-85
2022/11/10 04:51:08;;;;;;;7.13;3.53;;;;;;;16.75;48.16;93813.47;5048435;28;20094;-84
2022/11/10 04:53:33;;;;;;;6.38;3.53;;;;;;;16.72;47.63;93819.91;5034960;28;20037;-86
2022/11/10 04:55:59;;;;;;;23.95;5.80;;;;;;;16.65;48.53;93823.84;5082749;28;20032;-86
2022/11/10 04:58:24;;;;;;;14.05;5.57;;;;;;;16.62;48.67;93824.06;5070961;28;20036;-85
2022/11/10 05:00:50;;;;;;;10.43;5.00;;;;;;;16.63;48.38;93823.59;5062214;28;20495;-84
2022/11/10 05:03:15;;;;;;;11.73;4.90;;;;;;;16.64;48.55;93825.09;5076724;28;20036;-84
2022/11/10 05:05:40;;;;;;;33.35;8.30;;;;;;;16.56;48.96;93828.72;5079151;28;20036;-85
2022/11/10 05:08:06;;;;;;;15.32;5.80;;;;;;;16.52;49.45;93831.69;5049779;28;20040;-84
2022/11/10 05:10:33;;;;;;;20.35;7.85;;;;;;;16.52;49.69;93830.94;5077270;28;20033;-85
2022/11/10 05:12:58;;;;;;;14.85;6.32;;;;;;;16.48;49.98;93825.69;5039698;28;20063;-85
2022/11/10 05:15:24;;;;;;;15.70;6.55;;;;;;;16.44;50.04;93825.94;5073732;28;20576;-85
2022/11/10 05:17:50;;;;;;;11.50;6.50;;;;;;;16.45;50.08;93832.16;5066956;28;20550;-84
2022/11/10 05:20:16;;;;;;;11.50;6.68;;;;;;;16.43;50.00;93838.09;5048816;28;20222;-84
2022/11/10 05:25:36;;;;;;;14.20;6.97;;;;;;;16.48;49.56;93833.88;5004060;28;20053;-85
2022/11/10 05:28:02;;;;;;;9.05;6.75;;;;;;;16.49;50.00;93832.66;4988772;28;20062;-85
2022/11/10 05:30:27;;;;;;;12.57;5.72;;;;;;;16.50;49.59;93839.59;4989098;28;20045;-84
2022/11/10 05:32:53;;;;;;;16.90;5.70;;;;;;;16.52;49.58;93847.31;5006124;28;20132;-84
2022/11/10 05:35:18;;;;;;;36.83;21.52;;;;;;;16.57;49.14;93852.81;4967969;28;20046;-84
2022/11/10 05:37:43;;;;;;;106.18;76.32;;;;;;;16.59;49.29;93855.03;4971270;28;20065;-84
2022/11/10 05:40:09;;;;;;;82.00;55.22;;;;;;;16.63;49.15;93858.31;4994930;28;20106;-84
2022/11/10 05:42:42;;;;;;;18.15;7.88;;;;;;;16.67;49.16;93850.66;5004414;28;20504;-82
2022/11/10 05:45:08;;;;;;;14.73;7.95;;;;;;;16.76;49.28;93861.38;5005901;28;20112;-84
2022/11/10 05:47:35;;;;;;;25.50;10.18;;;;;;;16.75;48.70;93859.88;5002443;28;20084;-85
2022/11/10 05:50:01;;;;;;;19.60;9.07;;;;;;;16.74;48.88;93856.38;4970845;28;20089;-83
2022/11/10 05:52:26;;;;;;;15.38;8.82;;;;;;;16.71;48.64;93857.38;4967979;28;20042;-83
2022/11/10 05:54:54;;;;;;;17.15;10.90;;;;;;;16.76;48.96;93853.91;4973904;28;20875;-83
2022/11/10 05:57:19;;;;;;;19.38;11.85;;;;;;;16.71;48.59;93860.09;5005327;28;20100;-83
2022/11/10 05:59:45;;;;;;;26.98;12.68;;;;;;;16.71;48.50;93867.53;5005935;28;20117;-84
2022/11/10 06:02:10;;;;;;;34.45;16.58;;;;;;;16.70;48.80;93874.22;5023571;28;20064;-84
2022/11/10 06:04:36;;;;;;;47.80;18.95;;;;;;;16.70;48.92;93887.88;5083830;28;20256;-84
2022/11/10 06:07:01;;;;;;;44.05;17.60;;;;;;;16.66;48.75;93896.31;5060641;28;20067;-84
2022/11/10 06:09:27;;;;;;;47.13;20.98;;;;;;;16.63;49.10;93915.63;5067171;28;20621;-84
2022/11/10 06:11:52;;;;;;;59.28;22.15;;;;;;;16.56;49.70;93927.72;5061279;28;20040;-84
2022/11/10 06:14:17;;;;;;;55.70;18.33;;;;;;;16.49;50.05;93933.63;5053387;28;20426;-85
2022/11/10 06:16:43;;;;;;;69.38;21.00;;;;;;;16.45;49.88;93942.03;5074972;28;20422;-85
2022/11/10 06:19:08;;;;;;;37.78;16.30;;;;;;;16.45;50.34;93946.75;5067457;28;22326;-86
2022/11/10 06:21:34;;;;;;;27.15;13.88;;;;;;;16.41;50.38;93949.72;5048841;28;20417;-85
2022/11/10 06:23:59;;;;;;;44.70;14.35;;;;;;;16.37;50.76;93951.16;5055604;28;20032;-84
2022/11/10 06:26:25;;;;;;;47.95;18.33;;;;;;;16.36;50.55;93964.03;5064274;28;20117;-84
2022/11/10 06:28:50;;;;;;;36.17;17.33;;;;;;;16.29;50.95;93961.75;5072096;28;20110;-85
2022/11/10 06:31:16;;;;;;;78.82;26.77;;;;;;;16.35;51.00;93968.00;5063938;28;20497;-84
2022/11/10 06:33:41;;;;;;;59.25;21.25;;;;;;;16.31;50.77;93975.66;5085205;28;20039;-83
2022/11/10 06:36:07;;;;;;;67.25;22.55;;;;;;;16.27;50.77;93982.56;5068066;28;20043;-83
2022/11/10 06:38:33;;;;;;;62.22;23.65;;;;;;;16.25;51.00;93987.75;5070394;28;20043;-83
2022/11/10 06:40:58;;;;;;;89.60;27.52;;;;;;;16.23;51.14;93987.50;5052719;28;20417;-84
2022/11/10 06:43:24;;;;;;;61.75;21.33;;;;;;;16.22;51.42;93992.22;5071807;28;20453;-83
2022/11/10 06:45:49;;;;;;;53.55;21.40;;;;;;;16.20;51.62;94000.13;5070160;28;20101;-88
2022/11/10 06:48:15;;;;;;;53.65;19.00;;;;;;;16.20;51.22;94002.09;5069430;28;20066;-85
2022/11/10 06:50:40;;;;;;;114.50;23.65;;;;;;;16.17;51.16;94003.06;5068253;28;20097;-85
2022/11/10 06:53:06;;;;;;;110.07;25.17;;;;;;;16.18;51.24;94008.03;5066484;28;20130;-85
2022/11/10 06:55:31;;;;;;;98.10;27.58;;;;;;;16.26;50.96;94019.25;5104811;28;20032;-85
2022/11/10 06:57:57;;;;;;;79.10;25.92;;;;;;;16.29;51.23;94021.00;5067047;28;20057;-84
2022/11/10 07:00:23;;;;;;;51.38;18.85;;;;;;;16.32;50.78;94023.53;5060682;28;20112;-85
2022/11/10 07:03:07;;;;;;;63.83;24.65;;;;;;;16.37;50.97;94022.09;5060298;28;20477;-84
2022/11/10 07:05:33;;;;;;;64.43;29.33;;;;;;;16.37;50.74;94030.28;5071524;28;20048;-85
2022/11/10 07:08:08;;;;;;;69.10;29.15;;;;;;;16.41;50.74;94039.75;5085404;28;20126;-84
2022/11/10 07:10:33;;;;;;;85.82;38.25;;;;;;;16.48;51.07;94044.00;5062719;28;20509;-85
2022/11/10 07:13:01;;;;;;;103.32;45.45;;;;;;;16.46;50.56;94051.94;5061724;28;20039;-85
2022/11/10 07:15:26;;;;;;;95.45;43.63;;;;;;;16.47;50.48;94045.25;5068401;28;20605;-87
2022/11/10 07:17:52;;;;;;;98.18;52.80;;;;;;;16.58;50.64;94050.06;5097353;28;20062;-84
2022/11/10 07:20:17;;;;;;;109.00;48.47;;;;;;;16.59;50.39;94046.09;5085098;28;20127;-85
2022/11/10 07:22:43;;;;;;;89.05;43.47;;;;;;;16.61;50.47;94049.84;5058517;28;20047;-85
2022/11/10 07:25:08;;;;;;;86.18;44.70;;;;;;;16.66;49.97;94049.19;5081306;28;20447;-85
2022/11/10 07:27:34;;;;;;;92.20;45.03;;;;;;;16.65;49.97;94058.59;5072869;28;20032;-85
2022/11/10 07:29:59;;;;;;;89.45;45.50;;;;;;;16.66;49.97;94057.38;5083972;28;20440;-85
2022/11/10 07:32:25;;;;;;;91.05;43.75;;;;;;;16.66;50.01;94056.63;5070898;28;20378;-85
2022/11/10 07:34:52;;;;;;;71.25;40.58;;;;;;;16.66;49.78;94053.91;5055577;28;20065;-84
2022/11/10 07:37:17;;;;;;;96.47;46.28;;;;;;;16.64;49.85;94059.84;5085037;28;20048;-84
2022/11/10 07:39:42;;;;;;;89.93;42.38;;;;;;;16.64;50.02;94054.38;5110426;28;20080;-84
2022/11/10 07:42:08;;;;;;;92.93;45.58;;;;;;;16.65;49.97;94064.06;5088703;28;20410;-84
2022/11/10 07:44:33;;;;;;;89.63;46.40;;;;;;;16.66;49.82;94059.34;5091311;28;20051;-86
2022/11/10 07:46:59;;;;;;;109.40;44.53;;;;;;;16.60;50.48;94072.16;5075922;28;20043;-84
2022/11/10 07:49:25;;;;;;;87.65;34.95;;;;;;;16.57;50.67;94079.34;5081137;28;20039;-85
2022/11/10 07:51:50;;;;;;;80.55;37.95;;;;;;;16.55;50.76;94081.81;5093826;28;20040;-84
2022/11/10 07:54:16;;;;;;;59.95;31.20;;;;;;;16.58;50.90;94088.28;5085450;28;20047;-84
2022/11/10 07:56:42;;;;;;;67.75;30.67;;;;;;;16.60;50.99;94092.03;5091509;28;20379;-85
2022/11/10 07:59:08;;;;;;;73.88;34.90;;;;;;;16.60;50.75;94096.72;5066199;28;20046;-85
2022/11/10 08:01:33;;;;;;;70.78;36.40;;;;;;;16.57;51.30;94092.22;5093876;28;20036;-86
2022/11/10 08:03:59;;;;;;;66.55;33.60;;;;;;;16.56;50.88;94099.66;5059352;28;20417;-89
2022/11/10 08:06:24;;;;;;;61.90;32.08;;;;;;;16.57;51.16;94100.41;5056567;28;20410;-86
2022/11/10 08:08:49;;;;;;;63.10;32.10;;;;;;;16.59;50.97;94100.69;5076625;28;20032;-85
2022/11/10 08:11:16;;;;;;;62.28;33.47;;;;;;;16.58;51.11;94105.41;5074666;28;20043;-85
2022/11/10 08:13:41;;;;;;;61.55;33.45;;;;;;;16.57;50.75;94106.63;5060776;28;20035;-86
2022/11/10 08:16:07;;;;;;;62.40;34.45;;;;;;;16.61;50.87;94103.69;5077033;28;20050;-84
2022/11/10 08:18:32;;;;;;;73.90;38.17;;;;;;;16.61;50.89;94109.16;5082275;28;20044;-86
2022/11/10 08:21:01;;;;;;;71.78;38.60;;;;;;;16.61;50.89;94118.09;5087959;28;20325;-87
2022/11/10 08:23:29;;;;;;;65.30;35.40;;;;;;;16.61;50.81;94125.53;5068498;28;20210;-87
2022/11/10 08:25:58;;;;;;;67.63;35.83;;;;;;;16.61;50.69;94120.81;5060312;28;20510;-86
2022/11/10 08:28:25;;;;;;;65.63;35.53;;;;;;;16.63;51.08;94123.06;5044191;28;20060;-86
2022/11/10 08:30:50;;;;;;;67.28;35.85;;;;;;;16.62;50.55;94143.41;5076347;28;20525;-85
2022/11/10 08:33:17;;;;;;;54.20;35.00;;;;;;;16.61;50.48;94137.19;5047180;28;20406;-85
2022/11/10 08:35:48;;;;;;;91.22;44.20;;;;;;;16.60;50.76;94137.69;5065926;28;20043;-86
2022/11/10 08:38:15;;;;;;;73.47;31.05;;;;;;;16.53;51.40;94141.56;5072579;28;20570;-86
2022/11/10 08:40:41;;;;;;;93.32;45.63;;;;;;;16.61;50.92;94145.38;5065541;28;20121;-85
2022/11/10 08:43:06;;;;;;;89.63;41.63;;;;;;;16.53;51.57;94152.50;5060491;28;20520;-85
2022/11/10 08:45:35;;;;;;;88.35;45.45;;;;;;;16.51;51.43;94160.41;5079102;28;20131;-84
2022/11/10 08:48:04;;;;;;;73.45;40.58;;;;;;;16.55;51.81;94160.94;5065078;28;20039;-85
2022/11/10 08:50:29;;;;;;;71.45;36.67;;;;;;;16.59;51.07;94158.00;5078599;28;20054;-84
2022/11/10 08:52:54;;;;;;;80.50;42.55;;;;;;;16.56;51.65;94165.19;5065320;28;20043;-85
2022/11/10 08:55:20;;;;;;;224.65;77.07;;;;;;;16.58;51.44;94179.09;5088440;28;20074;-85
2022/11/10 08:57:46;;;;;;;424.95;115.80;;;;;;;16.59;51.48;94182.59;5055099;28;20451;-86
2022/11/10 09:00:13;;;;;;;318.63;101.25;;;;;;;16.60;51.17;94189.53;5072197;28;20032;-86
2022/11/10 09:02:39;;;;;;;255.25;87.82;;;;;;;16.60;51.33;94182.09;5057588;28;20077;-85
2022/11/10 09:05:05;;;;;;;192.63;82.50;;;;;;;16.65;51.10;94194.34;5065808;27;20032;-87
2022/11/10 09:07:30;;;;;;;187.45;85.30;;;;;;;16.66;50.98;94198.56;5061277;28;20403;-86
2022/11/10 09:09:56;;;;;;;178.88;90.50;;;;;;;16.69;51.29;94198.34;5067307;28;20154;-87
2022/11/10 09:12:21;;;;;;;198.52;98.22;;;;;;;16.70;50.95;94207.28;5062608;28;20089;-85
2022/11/10 09:14:46;;;;;;;207.70;104.35;;;;;;;16.75;50.89;94212.06;5070601;28;20411;-85
2022/11/10 09:17:12;;;;;;;192.13;93.25;;;;;;;16.71;50.93;94216.97;5070378;28;20097;-86
2022/11/10 09:19:37;;;;;;;175.95;96.28;;;;;;;16.69;50.64;94230.34;5076097;28;20462;-85
2022/11/10 09:22:03;;;;;;;190.40;99.85;;;;;;;16.70;50.60;94234.59;5045037;28;20122;-85
2022/11/10 09:24:28;;;;;;;190.82;103.72;;;;;;;16.69;50.94;94230.34;5045734;28;20056;-86
2022/11/10 09:26:54;;;;;;;197.70;102.57;;;;;;;16.70;50.77;94226.41;5076959;28;20151;-85
2022/11/10 09:29:20;;;;;;;205.13;106.80;;;;;;;16.71;50.46;94236.09;5088177;28;20394;-86
2022/11/10 09:31:46;;;;;;;207.23;106.07;;;;;;;16.68;50.73;94232.34;5067442;28;20044;-85
2022/11/10 09:34:12;;;;;;;224.55;116.72;;;;;;;16.70;50.72;94240.78;5072578;28;20797;-85
2022/11/10 09:36:39;;;;;;;146.85;78.13;;;;;;;16.63;50.70;94249.41;5077444;28;20031;-85
2022/11/10 09:39:06;;;;;;;141.40;68.38;;;;;;;16.57;51.01;94251.28;5058015;28;20093;-85
2022/11/10 09:41:31;;;;;;;114.55;52.95;;;;;;;16.52;51.39;94249.25;5037071;28;20052;-84
2022/11/10 09:44:12;;;;;;;111.53;50.35;;;;;;;16.53;51.15;94250.75;5034490;28;20665;-88
2022/11/10 09:46:40;;;;;;;83.95;40.83;;;;;;;16.50;51.57;94259.88;5022132;28;20491;-87
2022/11/10 09:49:24;;;;;;;89.13;38.67;;;;;;;16.48;51.72;94256.88;5045478;28;20135;-85
2022/11/10 09:51:50;;;;;;;60.90;32.70;;;;;;;16.43;51.92;94252.88;5058732;28;20254;-87
2022/11/10 09:54:21;;;;;;;70.70;34.17;;;;;;;16.44;52.14;94264.53;5055472;28;20504;-86
2022/11/10 09:56:49;;;;;;;62.28;33.42;;;;;;;16.42;51.81;94270.47;5079184;28;20071;-85
2022/11/10 09:59:18;;;;;;;63.17;31.50;;;;;;;16.45;52.23;94269.50;5056601;28;20032;-85
2022/11/10 10:01:59;;;;;;;77.45;30.63;;;;;;;16.42;52.39;94273.22;5058196;28;20214;-85
2022/11/10 10:04:30;;;;;;;;;;;;;;;16.48;52.29;94278.72;5034374;28;20398;-86
2022/11/10 10:10:21;;;;;;;91.85;36.25;;;;;;;16.42;53.01;94275.94;5068938;27;1334455;-85
2022/11/10 10:13:16;;;;;;;60.97;29.40;;;;;;;16.39;52.89;94290.53;5104518;28;20101;-85
2022/11/10 10:15:56;;;;;;;39.28;22.25;;;;;;;16.37;52.84;94281.31;5118520;27;20424;-84
2022/11/10 10:18:46;;;;;;;38.92;21.90;;;;;;;16.35;52.69;94281.03;5101534;28;20047;-83
2022/11/10 10:21:30;;;;;;;45.53;24.17;;;;;;;16.30;53.17;94293.38;5108516;28;20038;-84
2022/11/10 10:23:57;;;;;;;38.95;23.13;;;;;;;16.29;53.25;94291.13;5107229;28;20049;-87
2022/11/10 10:26:30;;;;;;;34.15;19.70;;;;;;;16.34;53.17;94302.09;5103385;27;20114;-85
2022/11/10 10:28:56;;;;;;;37.22;21.67;;;;;;;16.29;53.00;94296.56;5101104;28;20080;-85
2022/11/10 10:31:27;;;;;;;35.47;18.52;;;;;;;16.31;52.89;94305.78;5081018;27;20042;-87
2022/11/10 10:33:52;;;;;;;38.42;18.73;;;;;;;16.33;52.73;94294.41;5096869;28;20060;-86
2022/11/10 10:36:24;;;;;;;52.92;22.27;;;;;;;16.38;52.78;94301.91;5091586;28;20036;-87
2022/11/10 10:38:55;;;;;;;40.10;21.50;;;;;;;16.39;53.09;94298.72;5099340;28;20063;-87
2022/11/10 10:41:31;;;;;;;40.15;21.65;;;;;;;16.41;52.38;94299.00;5113904;27;20040;-86
2022/11/10 10:43:58;;;;;;;48.45;20.55;;;;;;;16.44;52.83;94306.22;5085192;28;20094;-86
2022/11/10 10:46:27;;;;;;;88.25;34.33;;;;;;;16.48;53.15;94299.78;5077536;27;20035;-86
2022/11/10 10:49:13;;;;;;;85.22;38.42;;;;;;;16.51;52.99;94298.84;5087074;27;20541;-86
2022/11/10 10:51:39;;;;;;;76.55;37.42;;;;;;;16.53;52.32;94308.06;5105535;28;20040;-84
2022/11/10 10:54:05;;;;;;;58.80;30.25;;;;;;;16.57;53.78;94299.69;5093240;28;20137;-86
2022/11/10 10:56:32;;;;;;;87.18;38.20;;;;;;;16.55;52.55;94297.41;5096392;28;20044;-86
2022/11/10 10:59:00;;;;;;;65.35;30.73;;;;;;;16.61;52.84;94300.97;5103394;28;20082;-85
2022/11/10 11:01:29;;;;;;;168.60;52.35;;;;;;;16.62;52.30;94307.94;5103247;27;20036;-88
2022/11/10 11:03:54;;;;;;;97.50;36.55;;;;;;;16.62;53.06;94318.84;5101010;28;20040;-88
2022/11/10 11:06:24;;;;;;;78.25;39.40;;;;;;;16.62;51.81;94320.84;5081844;27;20112;-87
2022/11/10 11:08:59;;;;;;;70.03;35.15;;;;;;;16.62;51.88;94323.56;5090899;28;20123;-87
2022/11/10 11:11:28;;;;;;;72.55;35.33;;;;;;;16.61;52.08;94333.75;5086345;28;20047;-86
2022/11/10 11:14:25;;;;;;;56.78;29.48;;;;;;;16.65;52.99;94328.09;5097987;28;20137;-86
2022/11/10 11:16:52;;;;;;;64.03;31.17;;;;;;;16.64;51.98;94318.41;5081580;28;20418;-85
2022/11/10 11:19:19;;;;;;;60.08;31.95;;;;;;;16.63;52.08;94323.13;5082422;27;20423;-85
2022/11/10 11:22:23;;;;;;;52.38;29.27;;;;;;;16.67;53.05;94325.66;5108835;28;20044;-85
2022/11/10 11:25:06;;;;;;;397.65;297.95;;;;;;;16.68;52.16;94332.59;5110167;28;20130;-85
2022/11/10 11:27:50;;;;;;;167.52;107.78;;;;;;;16.66;51.93;94324.16;5092266;28;20046;-86
2022/11/10 11:30:18;;;;;;;53.22;28.88;;;;;;;16.69;52.12;94323.19;5100263;28;20118;-85
2022/11/10 11:32:59;;;;;;;62.58;32.58;;;;;;;16.67;51.96;94323.66;5068477;28;20031;-85
2022/11/10 11:35:43;;;;;;;;;;;;;;;16.70;52.10;94330.88;5077306;28;20452;-85
2022/11/10 11:38:32;;;;;;;63.95;31.02;;;;;;;16.68;51.72;94340.78;5104028;28;19923;-86
2022/11/10 11:41:21;;;;;;;48.38;28.67;;;;;;;16.71;51.49;94337.09;5063395;28;20155;-86